UAE12 OMDW-VRMM
Flight info
| Callsign | UAE12 |
|---|---|
| Flight time | 3h 33m |
| Altitude | 31000 |
| Route | ANVIX L223 TARDI N629 GIDAN P570 KITAL L894 LELEM LELEM2B |
| Aircraft | B77L/H-SDE1E2E3FGHIJ2J3J4J5M1RWXY/LB1D1 |
Departure
| Time | 2026-04-30 14:51 |
|---|---|
| Airport | Al Maktoum International Airport (OMDW) |
Arrival
| Time | 2026-04-30 18:24 |
|---|---|
| Airport | Velana International Airport (VRMM) |
| Time | Latitude | Longitude | Altitude | Speed | Heading |
|---|---|---|---|---|---|
| 2026-04-30 14:25 | 24.89286 | 55.14343 | 166 ft | 0 kts | 301° |
| 2026-04-30 14:35 | 24.89284 | 55.14347 | 166 ft | 2 kts | 301° |
| 2026-04-30 14:36 | 24.89275 | 55.14362 | 166 ft | 2 kts | 303° |
| 2026-04-30 14:36 | 24.89266 | 55.14378 | 166 ft | 2 kts | 304° |
| 2026-04-30 14:36 | 24.89257 | 55.14392 | 166 ft | 2 kts | 306° |
| 2026-04-30 14:36 | 24.89247 | 55.14406 | 166 ft | 2 kts | 311° |
| 2026-04-30 14:37 | 24.89235 | 55.14419 | 166 ft | 2 kts | 326° |
| 2026-04-30 14:37 | 24.89221 | 55.14425 | 167 ft | 2 kts | 14° |
| 2026-04-30 14:37 | 24.89212 | 55.14422 | 168 ft | 1 kts | 31° |
| 2026-04-30 14:40 | 24.89308 | 55.14484 | 165 ft | 11 kts | 30° |
| 2026-04-30 14:40 | 24.89373 | 55.14528 | 165 ft | 11 kts | 33° |
| 2026-04-30 14:40 | 24.89437 | 55.14574 | 165 ft | 11 kts | 33° |
| 2026-04-30 14:40 | 24.89502 | 55.14618 | 164 ft | 11 kts | 30° |
| 2026-04-30 14:41 | 24.89568 | 55.14661 | 164 ft | 11 kts | 31° |
| 2026-04-30 14:41 | 24.89633 | 55.14704 | 164 ft | 11 kts | 32° |
| 2026-04-30 14:41 | 24.89698 | 55.14749 | 163 ft | 11 kts | 32° |
| 2026-04-30 14:41 | 24.89763 | 55.14793 | 163 ft | 11 kts | 32° |
| 2026-04-30 14:42 | 24.89829 | 55.14834 | 163 ft | 11 kts | 27° |
| 2026-04-30 14:42 | 24.89890 | 55.14875 | 164 ft | 11 kts | 34° |
| 2026-04-30 14:42 | 24.89947 | 55.14929 | 163 ft | 11 kts | 57° |
| 2026-04-30 14:42 | 24.89935 | 55.15007 | 163 ft | 11 kts | 118° |
| 2026-04-30 14:43 | 24.89896 | 55.15081 | 163 ft | 11 kts | 122° |
| 2026-04-30 14:43 | 24.89856 | 55.15152 | 163 ft | 11 kts | 121° |
| 2026-04-30 14:43 | 24.89816 | 55.15224 | 163 ft | 11 kts | 121° |
| 2026-04-30 14:43 | 24.89776 | 55.15296 | 163 ft | 11 kts | 121° |
| 2026-04-30 14:44 | 24.89736 | 55.15369 | 163 ft | 11 kts | 121° |
| 2026-04-30 14:44 | 24.89695 | 55.15441 | 163 ft | 11 kts | 121° |
| 2026-04-30 14:44 | 24.89655 | 55.15513 | 163 ft | 11 kts | 121° |
| 2026-04-30 14:44 | 24.89615 | 55.15585 | 163 ft | 11 kts | 121° |
| 2026-04-30 14:45 | 24.89576 | 55.15658 | 163 ft | 11 kts | 120° |
| 2026-04-30 14:45 | 24.89538 | 55.15731 | 163 ft | 11 kts | 120° |
| 2026-04-30 14:45 | 24.89491 | 55.15817 | 163 ft | 23 kts | 121° |
| 2026-04-30 14:45 | 24.89370 | 55.16034 | 163 ft | 38 kts | 122° |
| 2026-04-30 14:46 | 24.89236 | 55.16273 | 163 ft | 36 kts | 122° |
| 2026-04-30 14:46 | 24.89110 | 55.16497 | 163 ft | 33 kts | 122° |
| 2026-04-30 14:46 | 24.88994 | 55.16708 | 163 ft | 31 kts | 121° |
| 2026-04-30 14:46 | 24.88884 | 55.16908 | 163 ft | 30 kts | 121° |
| 2026-04-30 14:47 | 24.88776 | 55.17104 | 163 ft | 30 kts | 122° |
| 2026-04-30 14:47 | 24.88668 | 55.17300 | 163 ft | 30 kts | 120° |
| 2026-04-30 14:47 | 24.88561 | 55.17497 | 163 ft | 30 kts | 121° |
| 2026-04-30 14:47 | 24.88460 | 55.17682 | 162 ft | 13 kts | 121° |
| 2026-04-30 14:48 | 24.88417 | 55.17760 | 163 ft | 13 kts | 121° |
| 2026-04-30 14:48 | 24.88391 | 55.17841 | 163 ft | 8 kts | 69° |
| 2026-04-30 14:48 | 24.88439 | 55.17879 | 162 ft | 9 kts | 30° |
| 2026-04-30 14:48 | 24.88490 | 55.17913 | 162 ft | 9 kts | 31° |
| 2026-04-30 14:49 | 24.88541 | 55.17948 | 162 ft | 9 kts | 32° |
| 2026-04-30 14:49 | 24.88592 | 55.17983 | 162 ft | 9 kts | 28° |
| 2026-04-30 14:49 | 24.88642 | 55.17960 | 162 ft | 9 kts | 297° |
| 2026-04-30 14:49 | 24.88685 | 55.17874 | 162 ft | 26 kts | 301° |
| 2026-04-30 14:50 | 24.89309 | 55.16741 | 161 ft | 140 kts | 301° |
| 2026-04-30 14:50 | 24.89883 | 55.15690 | 172 ft | 177 kts | 301° |
| 2026-04-30 14:51 | 24.91253 | 55.13265 | 788 ft | 198 kts | 303° |
| 2026-04-30 14:51 | 24.91998 | 55.11986 | 1295 ft | 195 kts | 302° |
| 2026-04-30 14:51 | 24.93355 | 55.09633 | 2453 ft | 190 kts | 304° |
| 2026-04-30 14:52 | 24.94071 | 55.08373 | 2849 ft | 198 kts | 303° |
| 2026-04-30 14:52 | 24.95255 | 55.06274 | 3715 ft | 200 kts | 303° |
| 2026-04-30 14:52 | 24.95880 | 55.04901 | 4222 ft | 203 kts | 286° |
| 2026-04-30 14:53 | 24.95383 | 55.01878 | 4821 ft | 230 kts | 223° |
| 2026-04-30 14:53 | 24.94447 | 55.01294 | 5010 ft | 239 kts | 202° |
| 2026-04-30 14:54 | 24.90669 | 55.00618 | 5760 ft | 267 kts | 162° |
| 2026-04-30 14:54 | 24.88228 | 55.03677 | 6550 ft | 292 kts | 102° |
| 2026-04-30 14:55 | 24.86699 | 55.07842 | 7273 ft | 300 kts | 111° |
| 2026-04-30 14:55 | 24.86443 | 55.10126 | 7741 ft | 307 kts | 78° |
| 2026-04-30 14:55 | 24.87913 | 55.13387 | 8624 ft | 307 kts | 55° |
| 2026-04-30 14:56 | 24.90032 | 55.17584 | 9847 ft | 316 kts | 64° |
| 2026-04-30 14:56 | 24.91692 | 55.22186 | 10570 ft | 343 kts | 70° |
| 2026-04-30 14:57 | 24.92482 | 55.24745 | 10732 ft | 364 kts | 71° |
| 2026-04-30 14:57 | 24.94102 | 55.30361 | 11140 ft | 401 kts | 72° |
| 2026-04-30 14:58 | 24.95791 | 55.36361 | 12266 ft | 415 kts | 72° |
| 2026-04-30 14:58 | 24.96943 | 55.40440 | 13219 ft | 419 kts | 72° |
| 2026-04-30 14:58 | 24.99321 | 55.47544 | 14609 ft | 430 kts | 69° |
| 2026-04-30 14:59 | 25.01050 | 55.53647 | 15470 ft | 437 kts | 88° |
| 2026-04-30 15:00 | 24.98048 | 55.62879 | 17084 ft | 437 kts | 126° |
| 2026-04-30 15:00 | 24.94807 | 55.68664 | 18084 ft | 449 kts | 124° |
| 2026-04-30 15:01 | 24.91297 | 55.74390 | 19074 ft | 452 kts | 130° |
| 2026-04-30 15:01 | 24.90036 | 55.76236 | 19396 ft | 455 kts | 131° |
| 2026-04-30 15:01 | 24.86208 | 55.81863 | 20274 ft | 464 kts | 130° |
| 2026-04-30 15:02 | 24.83640 | 55.85730 | 20893 ft | 469 kts | 130° |
| 2026-04-30 15:02 | 24.81692 | 55.88636 | 21383 ft | 472 kts | 131° |
| 2026-04-30 15:03 | 24.75323 | 55.96908 | 22674 ft | 475 kts | 142° |
| 2026-04-30 15:03 | 24.70402 | 56.01844 | 23531 ft | 482 kts | 142° |
| 2026-04-30 15:04 | 24.65470 | 56.06896 | 24263 ft | 486 kts | 142° |
| 2026-04-30 15:04 | 24.58011 | 56.14556 | 25376 ft | 493 kts | 141° |
| 2026-04-30 15:05 | 24.51088 | 56.23082 | 26310 ft | 505 kts | 135° |
| 2026-04-30 15:06 | 24.47265 | 56.28024 | 26836 ft | 509 kts | 135° |
| 2026-04-30 15:06 | 24.41875 | 56.34904 | 27716 ft | 508 kts | 134° |
| 2026-04-30 15:07 | 24.37218 | 56.40819 | 28155 ft | 516 kts | 134° |
| 2026-04-30 15:07 | 24.32527 | 56.46769 | 28677 ft | 519 kts | 134° |
| 2026-04-30 15:08 | 24.27933 | 56.52927 | 29195 ft | 525 kts | 129° |
| 2026-04-30 15:08 | 24.21551 | 56.62645 | 30188 ft | 523 kts | 129° |
| 2026-04-30 15:09 | 24.17296 | 56.69095 | 30820 ft | 522 kts | 129° |
| 2026-04-30 15:09 | 24.13015 | 56.75527 | 31425 ft | 521 kts | 130° |
| 2026-04-30 15:10 | 24.08774 | 56.81889 | 32052 ft | 520 kts | 130° |
| 2026-04-30 15:11 | 24.00230 | 56.94666 | 32812 ft | 521 kts | 130° |
| 2026-04-30 15:11 | 23.96238 | 57.00596 | 32812 ft | 518 kts | 130° |
| 2026-04-30 15:13 | 23.86311 | 57.15339 | 32808 ft | 515 kts | 130° |
| 2026-04-30 15:14 | 23.71442 | 57.37412 | 32830 ft | 517 kts | 130° |
| 2026-04-30 15:17 | 23.51361 | 57.65017 | 32837 ft | 516 kts | 132° |
| 2026-04-30 15:19 | 23.33494 | 57.89403 | 32829 ft | 515 kts | 132° |
| 2026-04-30 17:39 | 8.14982 | 70.43340 | 34947 ft | 486 kts | 141° |
| 2026-04-30 17:42 | 7.88441 | 70.64341 | 34951 ft | 485 kts | 141° |
| 2026-04-30 17:43 | 7.75150 | 70.74844 | 34945 ft | 485 kts | 141° |
| 2026-04-30 17:44 | 7.59228 | 70.87416 | 34946 ft | 485 kts | 141° |
| 2026-04-30 17:47 | 7.35340 | 71.06229 | 34949 ft | 487 kts | 141° |
| 2026-04-30 17:48 | 7.16674 | 71.20903 | 34951 ft | 487 kts | 141° |
| 2026-04-30 17:50 | 6.95265 | 71.37713 | 34951 ft | 489 kts | 141° |
| 2026-04-30 17:52 | 6.79185 | 71.50326 | 34947 ft | 488 kts | 141° |
| 2026-04-30 17:54 | 6.55168 | 71.69146 | 34954 ft | 485 kts | 141° |
| 2026-04-30 17:56 | 6.34650 | 71.84947 | 34938 ft | 484 kts | 148° |
| 2026-04-30 17:58 | 6.16857 | 71.94599 | 34956 ft | 485 kts | 150° |
| 2026-04-30 18:00 | 5.93368 | 72.07742 | 34958 ft | 486 kts | 149° |
| 2026-04-30 18:01 | 5.78613 | 72.15975 | 34965 ft | 486 kts | 149° |
| 2026-04-30 18:02 | 5.60865 | 72.25867 | 34943 ft | 486 kts | 150° |
| 2026-04-30 18:04 | 5.43185 | 72.35716 | 34949 ft | 485 kts | 149° |
| 2026-04-30 18:06 | 5.19299 | 72.49013 | 32151 ft | 492 kts | 150° |
| 2026-04-30 18:07 | 5.08410 | 72.56248 | 31281 ft | 463 kts | 129° |
| 2026-04-30 18:08 | 5.03674 | 72.64383 | 28337 ft | 448 kts | 115° |
| 2026-04-30 18:09 | 4.98364 | 72.75279 | 24705 ft | 423 kts | 115° |
| 2026-04-30 18:10 | 4.93294 | 72.85526 | 21235 ft | 399 kts | 115° |
| 2026-04-30 18:11 | 4.88641 | 72.94927 | 19284 ft | 362 kts | 116° |
| 2026-04-30 18:11 | 4.85067 | 73.01750 | 17951 ft | 384 kts | 128° |
| 2026-04-30 18:12 | 4.78996 | 73.06829 | 16603 ft | 375 kts | 141° |
| 2026-04-30 18:13 | 4.74942 | 73.10046 | 15758 ft | 368 kts | 140° |
| 2026-04-30 18:13 | 4.69672 | 73.14276 | 14664 ft | 361 kts | 140° |
| 2026-04-30 18:14 | 4.65952 | 73.18342 | 13921 ft | 325 kts | 123° |
| 2026-04-30 18:15 | 4.62404 | 73.23790 | 12397 ft | 295 kts | 123° |
| 2026-04-30 18:15 | 4.59150 | 73.28754 | 11318 ft | 284 kts | 123° |
| 2026-04-30 18:16 | 4.56962 | 73.32088 | 10319 ft | 284 kts | 124° |
| 2026-04-30 18:16 | 4.54849 | 73.35305 | 9161 ft | 273 kts | 124° |
| 2026-04-30 18:17 | 4.53810 | 73.36887 | 8571 ft | 269 kts | 124° |
| 2026-04-30 18:17 | 4.52789 | 73.38441 | 7967 ft | 264 kts | 124° |
| 2026-04-30 18:17 | 4.50792 | 73.41481 | 6819 ft | 258 kts | 124° |
| 2026-04-30 18:18 | 4.49807 | 73.42980 | 6273 ft | 256 kts | 124° |
| 2026-04-30 18:18 | 4.48827 | 73.44472 | 5684 ft | 255 kts | 124° |
| 2026-04-30 18:18 | 4.46847 | 73.47482 | 4892 ft | 261 kts | 124° |
| 2026-04-30 18:19 | 4.45839 | 73.49014 | 4588 ft | 266 kts | 124° |
| 2026-04-30 18:19 | 4.44708 | 73.50426 | 4212 ft | 262 kts | 146° |
| 2026-04-30 18:19 | 4.43061 | 73.51095 | 4063 ft | 254 kts | 170° |
| 2026-04-30 18:19 | 4.41315 | 73.51451 | 4015 ft | 256 kts | 169° |
| 2026-04-30 18:20 | 4.39606 | 73.51817 | 3885 ft | 244 kts | 170° |
| 2026-04-30 18:20 | 4.37970 | 73.52167 | 3563 ft | 239 kts | 170° |
| 2026-04-30 18:20 | 4.36364 | 73.52509 | 3217 ft | 233 kts | 170° |
| 2026-04-30 18:20 | 4.34819 | 73.52839 | 2821 ft | 221 kts | 171° |
| 2026-04-30 18:21 | 4.33357 | 73.53121 | 2400 ft | 211 kts | 178° |
| 2026-04-30 18:21 | 4.31907 | 73.53165 | 2217 ft | 207 kts | 182° |
| 2026-04-30 18:21 | 4.30490 | 73.53146 | 1944 ft | 198 kts | 183° |
| 2026-04-30 18:21 | 4.29200 | 73.53128 | 1882 ft | 171 kts | 183° |
| 2026-04-30 18:22 | 4.27996 | 73.53117 | 1680 ft | 177 kts | 183° |
| 2026-04-30 18:22 | 4.25677 | 73.53100 | 1019 ft | 159 kts | 182° |
| 2026-04-30 18:22 | 4.24591 | 73.53124 | 796 ft | 152 kts | 182° |
| 2026-04-30 18:23 | 4.23544 | 73.53121 | 711 ft | 153 kts | 184° |
| 2026-04-30 18:23 | 4.22408 | 73.53090 | 459 ft | 165 kts | 183° |
| 2026-04-30 18:23 | 4.21295 | 73.53111 | 166 ft | 154 kts | 184° |
| 2026-04-30 18:23 | 4.20271 | 73.53106 | 22 ft | 143 kts | 180° |
| 2026-04-30 18:24 | 4.18934 | 73.53101 | 24 ft | 44 kts | 180° |
| 2026-04-30 18:24 | 4.18634 | 73.53102 | 21 ft | 24 kts | 179° |
| 2026-04-30 18:24 | 4.18543 | 73.53040 | 21 ft | 14 kts | 274° |
| 2026-04-30 18:25 | 4.18547 | 73.52962 | 21 ft | 8 kts | 278° |
| 2026-04-30 18:25 | 4.18549 | 73.52956 | 21 ft | 0 kts | 282° |
| 2026-04-30 18:26 | 4.18601 | 73.52863 | 23 ft | 5 kts | 281° |
| 2026-04-30 18:26 | 4.18598 | 73.52829 | 23 ft | 5 kts | 263° |
| 2026-04-30 18:26 | 4.18608 | 73.52794 | 23 ft | 5 kts | 289° |
| 2026-04-30 18:27 | 4.18609 | 73.52762 | -6 ft | 0 kts | 270° |